createdAt,value
2018-04-25T00:00:58.814Z,11.53
2018-04-25T00:03:26.277Z,12.07
2018-04-25T00:05:53.758Z,11.87
2018-04-25T00:08:21.230Z,10.03
2018-04-25T00:10:48.730Z,12.83
2018-04-25T00:13:16.211Z,13.40
2018-04-25T00:15:43.694Z,12.47
2018-04-25T00:18:11.159Z,11.73
2018-04-25T00:20:38.646Z,12.87
2018-04-25T00:23:06.118Z,14.03
2018-04-25T00:25:33.626Z,12.17
2018-04-25T00:28:01.182Z,10.63
2018-04-25T00:30:28.854Z,13.77
2018-04-25T00:32:56.323Z,12.03
2018-04-25T00:35:23.806Z,10.33
2018-04-25T00:37:51.329Z,10.97
2018-04-25T00:40:18.814Z,15.07
2018-04-25T00:42:46.283Z,10.73
2018-04-25T00:45:13.771Z,10.73
2018-04-25T00:47:41.258Z,12.10
2018-04-25T00:50:08.742Z,11.37
2018-04-25T00:52:36.198Z,9.40
2018-04-25T00:55:03.690Z,13.00
2018-04-25T00:57:31.191Z,10.23
2018-04-25T00:59:58.654Z,8.37
2018-04-25T01:02:26.202Z,8.60
2018-04-25T01:04:53.658Z,9.17
2018-04-25T01:07:21.146Z,11.27
2018-04-25T01:09:48.604Z,8.97
2018-04-25T01:12:16.151Z,11.00
2018-04-25T01:14:43.627Z,11.37
2018-04-25T01:17:11.123Z,11.13
2018-04-25T01:19:38.627Z,10.20
2018-04-25T01:22:06.119Z,7.97
2018-04-25T01:24:33.655Z,12.70
2018-04-25T01:27:03.951Z,16.97
2018-04-25T01:29:31.518Z,10.70
2018-04-25T01:31:59.008Z,9.67
2018-04-25T01:34:26.531Z,9.67
2018-04-25T01:37:10.067Z,12.90
2018-04-25T01:39:38.455Z,9.43
2018-04-25T01:42:14.758Z,10.37
2018-04-25T01:44:42.274Z,9.10
2018-04-25T01:47:14.640Z,11.13
2018-04-25T02:12:28.222Z,12.80
2018-04-25T02:14:55.677Z,12.17
2018-04-25T02:17:23.158Z,11.87
2018-04-25T02:19:50.630Z,13.80
2018-04-25T02:22:18.118Z,14.47
2018-04-25T02:24:45.596Z,10.50
2018-04-25T02:27:13.088Z,10.33
2018-04-25T02:29:40.546Z,9.97
2018-04-25T02:32:08.003Z,9.90
2018-04-25T02:34:35.482Z,13.80
2018-04-25T02:37:02.947Z,10.73
2018-04-25T02:39:30.482Z,11.53
2018-04-25T02:41:57.951Z,11.43
2018-04-25T02:44:25.439Z,11.43
2018-04-25T02:46:52.910Z,10.73
2018-04-25T02:49:20.394Z,12.47
2018-04-25T02:51:47.865Z,10.03
2018-04-25T02:54:15.359Z,9.17
2018-04-25T02:56:42.842Z,12.60
2018-04-25T02:59:11.296Z,12.43
2018-04-25T03:01:38.763Z,7.93
2018-04-25T03:04:06.242Z,9.47
2018-04-25T03:06:33.715Z,10.83
2018-04-25T03:09:01.196Z,8.83
2018-04-25T03:11:28.658Z,11.30
2018-04-25T03:13:56.139Z,9.53
2018-04-25T03:16:23.602Z,9.53
2018-04-25T03:18:51.081Z,8.93
2018-04-25T03:21:18.546Z,9.33
2018-04-25T03:23:46.027Z,9.57
2018-04-25T03:26:13.487Z,8.33
2018-04-25T03:28:40.976Z,9.30
2018-04-25T03:31:08.470Z,12.80
2018-04-25T03:33:35.972Z,10.40
2018-04-25T03:36:03.435Z,11.33
2018-04-25T03:38:30.926Z,11.30
2018-04-25T03:40:58.428Z,9.73
2018-04-25T03:43:25.878Z,11.23
2018-04-25T03:45:53.358Z,7.83
2018-04-25T03:48:20.819Z,9.40
2018-04-25T03:50:49.303Z,9.13
2018-04-25T03:53:16.770Z,13.07
2018-04-25T03:55:44.262Z,11.10
2018-04-25T03:58:11.731Z,8.10
2018-04-25T04:00:39.359Z,11.67
2018-04-25T04:03:06.817Z,10.00
2018-04-25T04:05:34.298Z,10.23
2018-04-25T04:08:01.790Z,10.37
2018-04-25T04:10:29.269Z,12.77
2018-04-25T04:12:56.798Z,10.50
2018-04-25T04:15:24.255Z,13.47
2018-04-25T04:17:51.779Z,12.80
2018-04-25T04:20:19.270Z,11.90
2018-04-25T04:22:47.577Z,11.67
2018-04-25T04:25:15.064Z,11.27
2018-04-25T04:27:42.522Z,13.90
2018-04-25T04:30:10.007Z,9.60
2018-04-25T04:32:37.474Z,13.50
2018-04-25T04:35:04.959Z,9.43
2018-04-25T04:37:32.436Z,10.63
2018-04-25T04:39:59.919Z,11.13
2018-04-25T04:42:27.383Z,10.77
2018-04-25T04:44:54.874Z,11.50
2018-04-25T04:47:22.339Z,11.33
2018-04-25T04:49:49.798Z,11.07
2018-04-25T04:52:17.278Z,11.93
2018-04-25T04:54:44.743Z,12.83
2018-04-25T04:57:12.231Z,12.43
2018-04-25T04:59:39.746Z,11.67
2018-04-25T05:02:07.205Z,12.67
2018-04-25T05:04:34.706Z,10.27
2018-04-25T05:07:02.188Z,9.00
2018-04-25T05:09:29.646Z,12.30
2018-04-25T05:11:57.138Z,14.90
2018-04-25T05:14:24.606Z,14.97
2018-04-25T05:16:52.100Z,16.33
2018-04-25T05:19:19.582Z,19.10
2018-04-25T05:21:47.069Z,18.13
2018-04-25T05:24:14.534Z,15.73
2018-04-25T05:26:42.034Z,12.87
2018-04-25T05:29:09.516Z,18.40
2018-04-25T05:31:36.997Z,15.70
2018-04-25T05:34:04.458Z,18.00
2018-04-25T05:36:31.938Z,12.37
2018-04-25T05:38:59.399Z,17.30
2018-04-25T05:41:26.900Z,11.77
2018-04-25T05:43:54.371Z,18.20
2018-04-25T05:46:21.855Z,18.57
2018-04-25T05:48:49.321Z,19.43
2018-04-25T05:51:16.811Z,18.80
2018-04-25T05:53:44.291Z,23.80
2018-04-25T05:56:11.790Z,23.73
2018-04-25T05:58:39.258Z,20.60
2018-04-25T06:01:06.742Z,26.20
2018-04-25T06:03:34.563Z,16.47
2018-04-25T06:06:02.031Z,20.93
2018-04-25T06:08:29.525Z,20.77
2018-04-25T06:10:57.006Z,16.37
2018-04-25T06:13:24.491Z,23.43
2018-04-25T06:15:51.991Z,19.77
2018-04-25T06:18:19.469Z,14.87
2018-04-25T06:20:46.933Z,20.07
2018-04-25T06:23:14.423Z,15.17
2018-04-25T06:25:41.898Z,16.63
2018-04-25T06:28:09.445Z,14.63
2018-04-25T06:30:36.878Z,15.33
2018-04-25T06:33:04.379Z,17.47
2018-04-25T06:35:31.848Z,24.03
2018-04-25T06:37:59.330Z,18.73
2018-04-25T06:40:26.805Z,23.27
2018-04-25T06:42:54.318Z,15.67
2018-04-25T06:45:21.800Z,17.30
2018-04-25T06:47:49.298Z,19.87
2018-04-25T06:50:16.761Z,17.07
2018-04-25T06:52:44.243Z,14.77
2018-04-25T06:55:11.711Z,19.87
2018-04-25T06:57:39.190Z,13.67
2018-04-25T07:00:06.661Z,13.40
2018-04-25T07:02:34.155Z,18.43
2018-04-25T07:05:01.618Z,14.63
2018-04-25T07:07:29.133Z,23.77
2018-04-25T07:09:56.622Z,16.77
2018-04-25T07:12:24.106Z,20.17
2018-04-25T07:14:51.574Z,15.73
2018-04-25T07:17:19.071Z,13.20
2018-04-25T07:19:46.539Z,16.80
2018-04-25T07:22:14.070Z,16.60
2018-04-25T07:24:41.534Z,14.30
2018-04-25T07:27:09.002Z,18.07
2018-04-25T07:29:36.585Z,17.10
2018-04-25T07:32:04.095Z,12.13
2018-04-25T07:34:31.647Z,16.07
2018-04-25T07:36:59.118Z,13.57
2018-04-25T07:39:26.622Z,13.33
2018-04-25T07:41:54.184Z,12.63
2018-04-25T07:44:21.686Z,12.77
2018-04-25T07:46:49.280Z,11.90
2018-04-25T07:49:16.778Z,14.40
2018-04-25T07:51:44.246Z,16.90
2018-04-25T07:54:11.739Z,18.57
2018-04-25T07:56:39.226Z,19.53
2018-04-25T07:59:06.718Z,13.27
2018-04-25T08:01:34.189Z,13.43
2018-04-25T08:04:01.675Z,15.03
2018-04-25T08:06:29.151Z,16.10
2018-04-25T08:08:56.630Z,16.73
2018-04-25T08:11:24.111Z,19.40
2018-04-25T08:14:03.383Z,15.50
2018-04-25T08:16:42.555Z,13.97
2018-04-25T08:19:23.054Z,19.63
2018-04-25T08:21:50.629Z,19.43
2018-04-25T08:24:18.138Z,13.23
2018-04-25T08:26:45.618Z,19.50
2018-04-25T08:29:13.103Z,17.23
2018-04-25T08:31:40.602Z,13.53
2018-04-25T08:34:08.082Z,20.20
2018-04-25T08:36:35.624Z,17.37
2018-04-25T08:39:03.150Z,20.07
2018-04-25T08:41:30.623Z,18.57
2018-04-25T08:43:58.109Z,15.80
2018-04-25T08:46:27.532Z,12.47
2018-04-25T08:48:55.201Z,14.17
2018-04-25T08:51:22.719Z,16.13
2018-04-25T08:53:50.182Z,15.07
2018-04-25T08:56:17.662Z,20.50
2018-04-25T08:58:45.118Z,15.37
2018-04-25T09:01:12.613Z,19.13
2018-04-25T09:03:40.090Z,18.73
2018-04-25T09:06:07.633Z,12.23
2018-04-25T09:08:35.138Z,17.93
2018-04-25T09:11:02.622Z,15.50
2018-04-25T09:13:30.303Z,19.47
2018-04-25T09:15:57.953Z,16.93
2018-04-25T09:18:25.423Z,15.53
2018-04-25T09:20:53.718Z,16.93
2018-04-25T09:23:21.254Z,13.47
2018-04-25T09:25:48.742Z,15.17
2018-04-25T09:28:16.210Z,21.33
2018-04-25T09:30:43.707Z,23.30
2018-04-25T09:33:11.169Z,18.20
2018-04-25T09:35:38.667Z,14.20
2018-04-25T09:38:06.158Z,16.33
2018-04-25T09:40:33.666Z,11.23
2018-04-25T09:43:01.131Z,17.07
2018-04-25T09:45:28.634Z,17.57
2018-04-25T09:47:56.111Z,16.20
2018-04-25T09:50:27.077Z,15.00
2018-04-25T09:52:54.714Z,14.35
2018-04-25T09:55:25.602Z,19.65
2018-04-25T09:57:53.345Z,22.55
2018-04-25T10:00:20.783Z,13.80
2018-04-25T10:02:53.915Z,12.85
2018-04-25T10:05:21.397Z,15.48
2018-04-25T10:07:48.940Z,14.40
2018-04-25T10:10:18.622Z,12.85
2018-04-25T10:12:46.346Z,14.18
2018-04-25T10:15:16.389Z,17.92
2018-04-25T10:17:44.042Z,15.32
2018-04-25T10:20:11.513Z,14.57
2018-04-25T10:22:39.052Z,16.90
2018-04-25T10:25:06.523Z,16.23
2018-04-25T10:27:34.210Z,16.83
2018-04-25T10:30:01.867Z,12.77
2018-04-25T10:32:29.369Z,15.10
2018-04-25T10:34:56.829Z,11.88
2018-04-25T10:37:24.349Z,15.30
2018-04-25T10:39:52.006Z,17.60
2018-04-25T10:42:19.510Z,22.17
2018-04-25T10:44:47.007Z,24.35
2018-04-25T10:47:14.521Z,15.50
2018-04-25T10:49:41.987Z,18.58
2018-04-25T10:52:09.485Z,18.20
2018-04-25T10:54:36.979Z,19.55
2018-04-25T10:57:04.466Z,13.55
2018-04-25T10:59:31.925Z,23.50
2018-04-25T11:01:59.415Z,16.10
2018-04-25T11:04:26.982Z,19.23
2018-04-25T11:06:54.417Z,18.95
2018-04-25T11:09:22.335Z,15.55
2018-04-25T11:11:49.814Z,26.25
2018-04-25T11:14:20.792Z,22.90
2018-04-25T11:16:52.785Z,21.73
2018-04-25T11:19:20.319Z,15.50
2018-04-25T11:21:47.787Z,17.52
2018-04-25T11:24:15.304Z,25.85
2018-04-25T11:26:42.833Z,21.27
2018-04-25T11:29:10.334Z,16.85
2018-04-25T11:31:37.798Z,20.98
2018-04-25T11:34:05.295Z,13.77
2018-04-25T11:36:32.795Z,21.12
2018-04-25T11:39:00.283Z,15.00
2018-04-25T11:41:27.766Z,14.95
2018-04-25T11:43:55.267Z,18.80
2018-04-25T11:46:22.738Z,24.58
2018-04-25T11:48:50.250Z,25.42
2018-04-25T11:51:17.734Z,17.02
2018-04-25T11:53:45.218Z,19.95
2018-04-25T11:56:12.904Z,21.67
2018-04-25T11:58:40.418Z,15.73
2018-04-25T12:01:07.890Z,17.37
2018-04-25T12:03:35.391Z,18.40
2018-04-25T12:06:02.876Z,22.40
2018-04-25T12:08:30.369Z,25.75
2018-04-25T12:10:57.848Z,33.22
2018-04-25T12:13:25.372Z,22.40
2018-04-25T12:15:52.828Z,20.95
2018-04-25T12:18:20.374Z,22.50
2018-04-25T12:20:47.871Z,19.90
2018-04-25T12:23:15.368Z,25.90
2018-04-25T12:25:42.878Z,17.27
2018-04-25T12:28:10.342Z,27.80
2018-04-25T12:30:37.838Z,20.90
2018-04-25T12:33:05.349Z,24.17
2018-04-25T12:35:32.850Z,16.83
2018-04-25T12:38:00.320Z,20.17
2018-04-25T12:40:27.827Z,24.37
2018-04-25T12:42:55.295Z,26.92
2018-04-25T12:45:22.791Z,22.30
2018-04-25T12:47:50.266Z,22.42
2018-04-25T12:50:17.834Z,18.35
2018-04-25T12:52:45.330Z,21.37
2018-04-25T12:55:12.823Z,21.65
2018-04-25T12:57:40.488Z,19.33
2018-04-25T13:00:07.996Z,17.05
2018-04-25T13:02:35.490Z,22.70
2018-04-25T13:05:03.999Z,22.75
2018-04-25T13:07:31.464Z,18.85
2018-04-25T13:09:58.991Z,17.05
2018-04-25T13:12:26.465Z,14.43
2018-04-25T13:14:53.972Z,19.08
2018-04-25T13:17:21.447Z,20.08
2018-04-25T13:19:48.952Z,13.90
2018-04-25T13:22:16.431Z,24.08
2018-04-25T13:24:43.909Z,20.27
2018-04-25T13:27:11.467Z,17.20
2018-04-25T13:29:38.939Z,16.55
2018-04-25T13:32:06.522Z,22.73
2018-04-25T13:34:33.999Z,20.55
2018-04-25T13:37:01.491Z,23.90
2018-04-25T13:39:28.950Z,17.42
2018-04-25T13:41:56.438Z,27.77
2018-04-25T13:44:23.904Z,21.08
2018-04-25T13:46:51.737Z,21.58
2018-04-25T13:49:21.384Z,22.80
2018-04-25T13:51:48.989Z,20.10
2018-04-25T13:54:16.571Z,17.10
2018-04-25T13:56:45.553Z,15.98
2018-04-25T13:59:13.594Z,13.38
2018-04-25T14:01:41.086Z,19.17
2018-04-25T14:04:09.034Z,17.58
2018-04-25T14:06:36.518Z,18.33
2018-04-25T14:09:03.982Z,15.07
2018-04-25T14:11:31.578Z,16.55
2018-04-25T14:13:59.060Z,19.98
2018-04-25T14:16:29.381Z,17.85
2018-04-25T14:18:59.052Z,18.60
2018-04-25T14:21:26.923Z,15.10
2018-04-25T14:23:54.390Z,17.58
2018-04-25T14:26:23.925Z,17.23
2018-04-25T14:28:51.706Z,13.02
2018-04-25T14:31:19.318Z,14.75
2018-04-25T14:33:46.782Z,18.27
2018-04-25T14:36:14.294Z,13.73
2018-04-25T14:38:44.846Z,16.85
2018-04-25T14:41:12.850Z,15.10
2018-04-25T14:43:40.355Z,14.68
2018-04-25T14:46:07.818Z,14.85
2018-04-25T14:48:35.319Z,14.63
2018-04-25T14:51:02.850Z,14.25
2018-04-25T14:53:30.366Z,13.60
2018-04-25T14:55:57.835Z,24.23
2018-04-25T14:58:25.326Z,18.35
2018-04-25T15:00:52.797Z,15.82
2018-04-25T15:03:20.307Z,18.50
2018-04-25T15:05:47.771Z,14.38
2018-04-25T15:08:15.293Z,12.77
2018-04-25T15:10:42.774Z,17.08
2018-04-25T15:13:10.269Z,12.52
2018-04-25T15:15:37.758Z,21.87
2018-04-25T15:18:05.267Z,22.08
2018-04-25T15:20:32.745Z,17.40
2018-04-25T15:23:00.234Z,14.73
2018-04-25T15:25:27.716Z,20.42
2018-04-25T15:27:55.236Z,17.15
2018-04-25T15:30:22.706Z,19.60
2018-04-25T15:32:50.206Z,17.60
2018-04-25T15:35:17.681Z,16.25
2018-04-25T15:37:45.206Z,14.63
2018-04-25T15:40:12.669Z,16.65
2018-04-25T15:42:40.153Z,16.10
2018-04-25T15:45:07.618Z,15.18
2018-04-25T15:47:35.148Z,13.38
2018-04-25T15:50:02.646Z,16.58
2018-04-25T15:52:30.102Z,16.87
2018-04-25T15:54:57.588Z,14.02
2018-04-25T15:57:25.064Z,17.37
2018-04-25T15:59:52.590Z,15.55
2018-04-25T16:02:20.067Z,19.02
2018-04-25T16:04:47.559Z,13.48
2018-04-25T16:07:15.034Z,13.32
2018-04-25T16:09:42.630Z,13.50
2018-04-25T16:12:10.153Z,11.32
2018-04-25T16:14:37.634Z,12.15
2018-04-25T16:17:05.212Z,16.12
2018-04-25T16:19:32.718Z,15.13
2018-04-25T16:22:00.231Z,21.65
2018-04-25T16:24:27.729Z,15.98
2018-04-25T16:26:55.194Z,18.52
2018-04-25T16:29:22.710Z,16.98
2018-04-25T16:31:50.197Z,17.83
2018-04-25T16:34:17.678Z,13.55
2018-04-25T16:36:45.174Z,17.35
2018-04-25T16:39:12.658Z,15.38
2018-04-25T16:41:40.125Z,17.48
2018-04-25T16:44:07.681Z,11.65
2018-04-25T16:46:35.149Z,12.73
2018-04-25T16:49:02.647Z,16.58
2018-04-25T16:51:30.110Z,13.20
2018-04-25T16:53:57.594Z,15.05
2018-04-25T16:56:25.078Z,15.73
2018-04-25T16:58:52.591Z,20.05
2018-04-25T17:01:20.603Z,16.62
2018-04-25T17:03:48.073Z,13.20
2018-04-25T17:06:15.562Z,11.73
2018-04-25T17:08:43.018Z,9.50
2018-04-25T17:11:10.506Z,17.45
2018-04-25T17:13:38.030Z,9.27
2018-04-25T17:16:05.483Z,16.20
2018-04-25T17:18:33.079Z,12.15
2018-04-25T17:21:00.592Z,13.82
2018-04-25T17:23:28.096Z,9.35
2018-04-25T17:25:55.592Z,16.27
2018-04-25T17:28:23.072Z,11.23
2018-04-25T17:30:50.566Z,14.50
2018-04-25T17:33:18.040Z,16.33
2018-04-25T17:35:45.543Z,12.73
2018-04-25T17:38:13.001Z,12.07
2018-04-25T17:40:40.485Z,10.02
2018-04-25T17:43:07.941Z,7.27
2018-04-25T17:45:35.609Z,7.57
2018-04-25T17:48:03.078Z,14.00
2018-04-25T17:50:30.679Z,10.70
2018-04-25T17:52:58.198Z,9.13
2018-04-25T17:55:25.687Z,11.60
2018-04-25T17:57:53.144Z,8.38
2018-04-25T18:00:20.638Z,7.00
2018-04-25T18:02:48.095Z,6.97
2018-04-25T18:05:15.580Z,6.00
2018-04-25T18:07:43.050Z,6.28
2018-04-25T18:10:10.536Z,6.53
2018-04-25T18:12:38.034Z,6.90
2018-04-25T18:15:05.536Z,8.93
2018-04-25T18:17:33.026Z,5.73
2018-04-25T18:20:00.506Z,5.73
2018-04-25T18:22:28.025Z,4.10
2018-04-25T18:24:55.510Z,5.20
2018-04-25T18:27:22.989Z,3.50
2018-04-25T18:29:50.468Z,5.67
2018-04-25T18:32:17.995Z,4.00
2018-04-25T18:34:45.507Z,5.53
2018-04-25T18:37:13.062Z,4.33
2018-04-25T18:39:40.542Z,2.90
2018-04-25T18:42:08.079Z,5.03
2018-04-25T18:44:35.572Z,4.30
2018-04-25T18:47:03.067Z,4.30
2018-04-25T18:49:30.566Z,9.13
2018-04-25T18:51:58.091Z,3.93
2018-04-25T18:54:25.571Z,3.13
2018-04-25T18:56:53.266Z,5.70
2018-04-25T18:59:20.734Z,4.53
2018-04-25T19:01:48.214Z,6.53
2018-04-25T19:04:15.689Z,5.37
2018-04-25T19:06:43.178Z,5.30
2018-04-25T19:09:10.633Z,4.33
2018-04-25T19:11:38.132Z,3.80
2018-04-25T19:14:05.598Z,4.73
2018-04-25T19:16:33.103Z,3.60
2018-04-25T19:19:00.570Z,5.40
2018-04-25T19:21:28.026Z,5.33
2018-04-25T19:23:55.546Z,3.60
2018-04-25T19:26:23.004Z,6.07
2018-04-25T19:28:50.533Z,4.90
2018-04-25T19:31:17.994Z,3.17
2018-04-25T19:33:45.489Z,5.27
2018-04-25T19:36:12.951Z,2.63
2018-04-25T19:38:40.585Z,3.43
2018-04-25T19:41:08.181Z,2.60
2018-04-25T19:43:35.659Z,1.87
2018-04-25T19:46:03.141Z,3.57
2018-04-25T19:48:30.631Z,2.43
2018-04-25T19:50:58.103Z,2.87
2018-04-25T19:53:25.602Z,2.80
2018-04-25T19:55:53.995Z,1.73
2018-04-25T19:58:21.495Z,3.57
2018-04-25T20:00:48.973Z,1.80
2018-04-25T20:03:16.467Z,4.17
2018-04-25T20:05:43.967Z,3.57
2018-04-25T20:08:11.523Z,3.17
2018-04-25T20:10:38.986Z,2.77
2018-04-25T20:13:06.604Z,8.37
2018-04-25T20:15:34.083Z,2.10
2018-04-25T20:18:01.575Z,1.53
2018-04-25T20:20:29.034Z,3.53
2018-04-25T20:22:56.514Z,2.47
2018-04-25T20:25:23.972Z,1.87
2018-04-25T20:27:51.467Z,2.60
2018-04-25T20:30:20.401Z,1.63
2018-04-25T20:32:47.882Z,1.57
2018-04-25T20:35:15.361Z,2.37
2018-04-25T20:37:42.839Z,1.97
2018-04-25T20:40:10.330Z,3.07
2018-04-25T20:42:37.785Z,2.00
2018-04-25T20:45:05.301Z,4.90
2018-04-25T20:47:32.758Z,2.13
2018-04-25T20:50:00.243Z,1.77
2018-04-25T20:52:27.727Z,2.80
2018-04-25T20:54:55.211Z,2.40
2018-04-25T20:57:22.670Z,4.57
2018-04-25T20:59:50.151Z,2.40
2018-04-25T21:02:17.668Z,2.10
2018-04-25T21:04:46.222Z,3.17
2018-04-25T21:07:13.686Z,1.60
2018-04-25T21:09:41.166Z,1.70
2018-04-25T21:12:08.771Z,2.97
2018-04-25T21:14:36.250Z,2.13
2018-04-25T21:17:03.723Z,1.70
2018-04-25T21:19:31.198Z,2.53
2018-04-25T21:21:58.655Z,1.60
2018-04-25T21:24:26.147Z,2.30
2018-04-25T21:26:53.613Z,2.00
2018-04-25T21:29:21.094Z,2.37
2018-04-25T21:31:48.570Z,2.17
2018-04-25T21:34:16.030Z,1.70
2018-04-25T21:36:43.530Z,1.70
2018-04-25T21:39:10.986Z,2.13
2018-04-25T21:41:38.470Z,1.90
2018-04-25T21:44:05.990Z,1.83
2018-04-25T21:46:33.474Z,1.80
2018-04-25T21:49:00.939Z,1.97
2018-04-25T21:51:28.430Z,2.33
2018-04-25T21:53:55.891Z,2.07
2018-04-25T21:56:23.373Z,2.60
2018-04-25T21:58:50.834Z,2.20
2018-04-25T22:01:18.319Z,3.13
2018-04-25T22:03:45.790Z,1.77
2018-04-25T22:06:13.274Z,2.13
2018-04-25T22:08:40.746Z,2.10
2018-04-25T22:11:08.251Z,2.00
2018-04-25T22:13:35.717Z,3.13
2018-04-25T22:16:03.194Z,1.73
2018-04-25T22:18:30.653Z,2.27
2018-04-25T22:20:58.151Z,2.57
2018-04-25T22:23:25.608Z,3.00
2018-04-25T22:25:53.130Z,3.87
2018-04-25T22:28:20.599Z,2.17
2018-04-25T22:30:48.077Z,2.70
2018-04-25T22:33:15.541Z,3.00
2018-04-25T22:35:43.031Z,2.40
2018-04-25T22:38:10.486Z,3.07
2018-04-25T22:40:37.946Z,2.77
2018-04-25T22:43:05.426Z,3.13
2018-04-25T22:45:32.890Z,2.03
2018-04-25T22:48:00.391Z,2.67
2018-04-25T22:50:27.855Z,3.37
2018-04-25T22:52:55.333Z,2.03
2018-04-25T22:55:22.791Z,3.10
2018-04-25T22:57:50.279Z,3.90
2018-04-25T23:00:17.782Z,5.23
2018-04-25T23:02:45.264Z,3.23
2018-04-25T23:05:12.750Z,2.70
2018-04-25T23:07:40.227Z,2.23
2018-04-25T23:10:07.681Z,2.90
2018-04-25T23:12:35.166Z,1.90
2018-04-25T23:15:02.622Z,2.20
2018-04-25T23:17:30.097Z,1.97
2018-04-25T23:19:58.539Z,2.53
2018-04-25T23:22:26.023Z,1.83
2018-04-25T23:24:53.487Z,1.87
2018-04-25T23:27:20.974Z,3.00
2018-04-25T23:29:48.429Z,2.73
2018-04-25T23:32:15.909Z,2.07
2018-04-25T23:34:43.385Z,7.30
2018-04-25T23:37:10.866Z,2.43
2018-04-25T23:39:38.323Z,2.10
2018-04-25T23:42:05.810Z,3.13
2018-04-25T23:44:33.270Z,2.40
2018-04-25T23:47:00.763Z,1.93
2018-04-25T23:49:28.246Z,2.40
2018-04-25T23:51:55.742Z,2.37
2018-04-25T23:54:23.198Z,2.03
2018-04-25T23:56:50.674Z,1.70
2018-04-25T23:59:18.151Z,1.90
